sensor_id;sensor_type;location;lat;lon;timestamp;pressure;altitude;pressure_sealevel;temperature;humidity
69848;BME280;57143;55.940;37.496;2022-09-09T00:01:43;100201.25;;;5.89;100.00
69848;BME280;57143;55.940;37.496;2022-09-09T00:04:21;100244.72;;;6.09;100.00
69848;BME280;57143;55.940;37.496;2022-09-09T00:06:59;100240.50;;;6.06;100.00
69848;BME280;57143;55.940;37.496;2022-09-09T00:09:31;100249.72;;;6.12;100.00
69848;BME280;57143;55.940;37.496;2022-09-09T00:12:11;100249.91;;;6.10;100.00
69848;BME280;57143;55.940;37.496;2022-09-09T00:14:45;100256.94;;;6.11;100.00
69848;BME280;57143;55.940;37.496;2022-09-09T00:17:22;100246.38;;;6.10;100.00
69848;BME280;57143;55.940;37.496;2022-09-09T00:19:55;100252.78;;;6.09;100.00
69848;BME280;57143;55.940;37.496;2022-09-09T00:22:24;100247.56;;;6.07;100.00
69848;BME280;57143;55.940;37.496;2022-09-09T00:24:53;100238.53;;;6.00;100.00
69848;BME280;57143;55.940;37.496;2022-09-09T00:27:28;100243.91;;;6.00;100.00
69848;BME280;57143;55.940;37.496;2022-09-09T00:30:01;100257.81;;;6.12;100.00
69848;BME280;57143;55.940;37.496;2022-09-09T00:32:30;100243.91;;;6.00;100.00
69848;BME280;57143;55.940;37.496;2022-09-09T00:35:04;100239.38;;;5.93;100.00
69848;BME280;57143;55.940;37.496;2022-09-09T00:37:42;100253.47;;;6.03;100.00
69848;BME280;57143;55.940;37.496;2022-09-09T00:40:23;100269.75;;;6.09;100.00
69848;BME280;57143;55.940;37.496;2022-09-09T00:43:04;100264.44;;;5.93;100.00
69848;BME280;57143;55.940;37.496;2022-09-09T00:46:00;100263.06;;;5.97;100.00
69848;BME280;57143;55.940;37.496;2022-09-09T00:48:37;100262.59;;;5.94;100.00
69848;BME280;57143;55.940;37.496;2022-09-09T00:51:15;100282.06;;;6.04;100.00
69848;BME280;57143;55.940;37.496;2022-09-09T00:54:02;100279.56;;;6.02;100.00
69848;BME280;57143;55.940;37.496;2022-09-09T00:56:37;100284.22;;;6.08;100.00
69848;BME280;57143;55.940;37.496;2022-09-09T00:59:19;100283.91;;;6.03;100.00
69848;BME280;57143;55.940;37.496;2022-09-09T01:01:51;100250.66;;;5.80;100.00
69848;BME280;57143;55.940;37.496;2022-09-09T01:04:26;100287.13;;;5.99;100.00
69848;BME280;57143;55.940;37.496;2022-09-09T01:07:03;100231.56;;;5.67;100.00
69848;BME280;57143;55.940;37.496;2022-09-09T01:09:45;100275.88;;;5.87;100.00
69848;BME280;57143;55.940;37.496;2022-09-09T01:12:24;100291.53;;;5.92;100.00
69848;BME280;57143;55.940;37.496;2022-09-09T01:14:58;100280.44;;;5.87;100.00
69848;BME280;57143;55.940;37.496;2022-09-09T01:17:31;100292.88;;;5.88;100.00
69848;BME280;57143;55.940;37.496;2022-09-09T01:20:05;100288.66;;;5.85;100.00
69848;BME280;57143;55.940;37.496;2022-09-09T01:22:47;100272.03;;;5.73;100.00
69848;BME280;57143;55.940;37.496;2022-09-09T01:25:29;100280.78;;;5.83;100.00
69848;BME280;57143;55.940;37.496;2022-09-09T01:28:00;100304.13;;;5.91;100.00
69848;BME280;57143;55.940;37.496;2022-09-09T01:30:28;100304.00;;;5.84;100.00
69848;BME280;57143;55.940;37.496;2022-09-09T01:32:57;100294.38;;;5.82;100.00
69848;BME280;57143;55.940;37.496;2022-09-09T01:35:38;100303.31;;;5.82;100.00
69848;BME280;57143;55.940;37.496;2022-09-09T01:38:06;100311.38;;;5.74;100.00
69848;BME280;57143;55.940;37.496;2022-09-09T01:40:33;100311.38;;;5.74;100.00
69848;BME280;57143;55.940;37.496;2022-09-09T01:43:02;100311.88;;;5.78;100.00
69848;BME280;57143;55.940;37.496;2022-09-09T01:45:30;100310.03;;;5.70;100.00
69848;BME280;57143;55.940;37.496;2022-09-09T01:47:58;100305.81;;;5.68;100.00
69848;BME280;57143;55.940;37.496;2022-09-09T01:50:26;100325.69;;;5.67;100.00
69848;BME280;57143;55.940;37.496;2022-09-09T01:52:56;100326.34;;;5.69;100.00
69848;BME280;57143;55.940;37.496;2022-09-09T01:55:29;100294.94;;;5.45;100.00
69848;BME280;57143;55.940;37.496;2022-09-09T01:58:07;100327.88;;;5.63;100.00
69848;BME280;57143;55.940;37.496;2022-09-09T02:00:43;100323.66;;;5.69;100.00
69848;BME280;57143;55.940;37.496;2022-09-09T02:03:20;100337.09;;;5.61;100.00
69848;BME280;57143;55.940;37.496;2022-09-09T02:05:55;100328.88;;;5.54;100.00
69848;BME280;57143;55.940;37.496;2022-09-09T02:08:29;100322.19;;;5.50;100.00
69848;BME280;57143;55.940;37.496;2022-09-09T02:11:02;100335.63;;;5.50;100.00
69848;BME280;57143;55.940;37.496;2022-09-09T02:13:35;100290.63;;;5.20;100.00
69848;BME280;57143;55.940;37.496;2022-09-09T02:16:07;100337.63;;;5.40;100.00
69848;BME280;57143;55.940;37.496;2022-09-09T02:18:38;100336.97;;;5.38;100.00
69848;BME280;57143;55.940;37.496;2022-09-09T02:21:08;100335.97;;;5.39;100.00
69848;BME280;57143;55.940;37.496;2022-09-09T02:23:38;100339.50;;;5.40;100.00
69848;BME280;57143;55.940;37.496;2022-09-09T02:26:07;100315.63;;;5.29;100.00
69848;BME280;57143;55.940;37.496;2022-09-09T02:28:37;100346.03;;;5.37;100.00
69848;BME280;57143;55.940;37.496;2022-09-09T02:31:06;100345.03;;;5.30;100.00
69848;BME280;57143;55.940;37.496;2022-09-09T02:33:37;100351.91;;;5.41;100.00
69848;BME280;57143;55.940;37.496;2022-09-09T02:36:08;100332.75;;;5.20;100.00
69848;BME280;57143;55.940;37.496;2022-09-09T02:38:42;100342.84;;;5.26;100.00
69848;BME280;57143;55.940;37.496;2022-09-09T02:41:16;100351.56;;;5.20;100.00
69848;BME280;57143;55.940;37.496;2022-09-09T02:43:45;100359.47;;;5.05;100.00
69848;BME280;57143;55.940;37.496;2022-09-09T02:46:23;100361.16;;;5.14;100.00
69848;BME280;57143;55.940;37.496;2022-09-09T02:48:59;100366.53;;;5.14;100.00
69848;BME280;57143;55.940;37.496;2022-09-09T02:51:32;100362.50;;;5.10;100.00
69848;BME280;57143;55.940;37.496;2022-09-09T02:54:09;100374.22;;;5.09;100.00
69848;BME280;57143;55.940;37.496;2022-09-09T02:56:43;100382.63;;;5.06;100.00
69848;BME280;57143;55.940;37.496;2022-09-09T02:59:14;100373.59;;;5.07;100.00
69848;BME280;57143;55.940;37.496;2022-09-09T03:01:41;100381.28;;;5.02;100.00
69848;BME280;57143;55.940;37.496;2022-09-09T03:04:09;100355.75;;;4.98;100.00
69848;BME280;57143;55.940;37.496;2022-09-09T03:06:36;100374.75;;;5.13;100.00
69848;BME280;57143;55.940;37.496;2022-09-09T03:09:03;100372.22;;;5.11;100.00
69848;BME280;57143;55.940;37.496;2022-09-09T03:11:30;100372.72;;;5.15;100.00
69848;BME280;57143;55.940;37.496;2022-09-09T03:13:57;100384.00;;;5.26;100.00
69848;BME280;57143;55.940;37.496;2022-09-09T03:16:26;100388.50;;;5.18;100.00
69848;BME280;57143;55.940;37.496;2022-09-09T03:18:53;100383.31;;;5.40;100.00
69848;BME280;57143;55.940;37.496;2022-09-09T03:21:20;100393.38;;;6.11;100.00
69848;BME280;57143;55.940;37.496;2022-09-09T03:23:47;100391.38;;;6.90;100.00
69848;BME280;57143;55.940;37.496;2022-09-09T03:26:13;100403.06;;;7.73;100.00
69848;BME280;57143;55.940;37.496;2022-09-09T03:28:41;100398.63;;;7.80;100.00
69848;BME280;57143;55.940;37.496;2022-09-09T03:31:09;100401.00;;;8.27;100.00
69848;BME280;57143;55.940;37.496;2022-09-09T03:33:38;100398.19;;;8.93;100.00
69848;BME280;57143;55.940;37.496;2022-09-09T03:36:07;100406.56;;;9.33;100.00
69848;BME280;57143;55.940;37.496;2022-09-09T03:38:36;100409.66;;;10.00;100.00
69848;BME280;57143;55.940;37.496;2022-09-09T03:41:03;100409.69;;;10.62;100.00
69848;BME280;57143;55.940;37.496;2022-09-09T03:43:31;100404.50;;;11.21;100.00
69848;BME280;57143;55.940;37.496;2022-09-09T03:45:58;100386.47;;;11.87;100.00
69848;BME280;57143;55.940;37.496;2022-09-09T03:48:26;100394.41;;;11.82;100.00
69848;BME280;57143;55.940;37.496;2022-09-09T03:50:55;100400.25;;;11.98;100.00
69848;BME280;57143;55.940;37.496;2022-09-09T03:53:25;100388.72;;;12.22;100.00
69848;BME280;57143;55.940;37.496;2022-09-09T03:55:53;100381.38;;;12.42;100.00
69848;BME280;57143;55.940;37.496;2022-09-09T03:58:22;100340.25;;;12.06;100.00
69848;BME280;57143;55.940;37.496;2022-09-09T04:00:56;100362.81;;;12.13;100.00
69848;BME280;57143;55.940;37.496;2022-09-09T04:03:23;100353.97;;;12.37;100.00
69848;BME280;57143;55.940;37.496;2022-09-09T04:05:51;100347.44;;;12.64;100.00
69848;BME280;57143;55.940;37.496;2022-09-09T04:08:20;100333.75;;;12.77;100.00
69848;BME280;57143;55.940;37.496;2022-09-09T04:10:49;100346.09;;;13.24;100.00
69848;BME280;57143;55.940;37.496;2022-09-09T04:13:17;100340.66;;;13.24;100.00
69848;BME280;57143;55.940;37.496;2022-09-09T04:15:50;100335.84;;;13.82;100.00
69848;BME280;57143;55.940;37.496;2022-09-09T04:18:18;100335.47;;;13.16;100.00
69848;BME280;57143;55.940;37.496;2022-09-09T04:20:46;100327.00;;;13.31;100.00
69848;BME280;57143;55.940;37.496;2022-09-09T04:23:14;100338.56;;;12.82;100.00
69848;BME280;57143;55.940;37.496;2022-09-09T04:25:45;100312.97;;;13.34;100.00
69848;BME280;57143;55.940;37.496;2022-09-09T04:28:13;100339.25;;;13.71;100.00
69848;BME280;57143;55.940;37.496;2022-09-09T04:30:40;100332.66;;;13.85;100.00
69848;BME280;57143;55.940;37.496;2022-09-09T04:33:07;100335.00;;;13.81;100.00
69848;BME280;57143;55.940;37.496;2022-09-09T04:35:35;100332.72;;;14.21;100.00
69848;BME280;57143;55.940;37.496;2022-09-09T04:38:02;100328.47;;;13.33;100.00
69848;BME280;57143;55.940;37.496;2022-09-09T04:40:29;100343.16;;;13.57;100.00
69848;BME280;57143;55.940;37.496;2022-09-09T04:42:59;100336.03;;;13.80;100.00
69848;BME280;57143;55.940;37.496;2022-09-09T04:45:26;100303.50;;;13.05;100.00
69848;BME280;57143;55.940;37.496;2022-09-09T04:47:53;100316.78;;;13.75;100.00
69848;BME280;57143;55.940;37.496;2022-09-09T04:50:21;100340.59;;;13.31;100.00
69848;BME280;57143;55.940;37.496;2022-09-09T04:52:48;100276.94;;;13.32;100.00
69848;BME280;57143;55.940;37.496;2022-09-09T04:55:15;100339.28;;;13.40;100.00
69848;BME280;57143;55.940;37.496;2022-09-09T04:57:42;100345.88;;;13.57;100.00
69848;BME280;57143;55.940;37.496;2022-09-09T05:00:12;100351.59;;;13.49;100.00
69848;BME280;57143;55.940;37.496;2022-09-09T05:02:39;100355.50;;;12.84;100.00
69848;BME280;57143;55.940;37.496;2022-09-09T05:05:08;100347.03;;;13.05;100.00
69848;BME280;57143;55.940;37.496;2022-09-09T05:07:36;100351.91;;;13.34;100.00
69848;BME280;57143;55.940;37.496;2022-09-09T05:10:04;100361.75;;;13.35;100.00
69848;BME280;57143;55.940;37.496;2022-09-09T05:12:31;100362.00;;;13.83;100.00
69848;BME280;57143;55.940;37.496;2022-09-09T05:14:58;100358.44;;;13.82;100.00
69848;BME280;57143;55.940;37.496;2022-09-09T05:17:27;100367.00;;;14.35;100.00
69848;BME280;57143;55.940;37.496;2022-09-09T05:19:54;100374.22;;;13.74;100.00
69848;BME280;57143;55.940;37.496;2022-09-09T05:22:21;100377.06;;;12.86;100.00
69848;BME280;57143;55.940;37.496;2022-09-09T05:24:48;100364.16;;;12.68;100.00
69848;BME280;57143;55.940;37.496;2022-09-09T05:27:16;100358.34;;;12.51;100.00
69848;BME280;57143;55.940;37.496;2022-09-09T05:29:45;100349.41;;;12.31;100.00
69848;BME280;57143;55.940;37.496;2022-09-09T05:32:12;100380.06;;;13.22;100.00
69848;BME280;57143;55.940;37.496;2022-09-09T05:34:42;100378.97;;;13.85;100.00
69848;BME280;57143;55.940;37.496;2022-09-09T05:37:09;100372.00;;;14.14;100.00
69848;BME280;57143;55.940;37.496;2022-09-09T05:39:36;100374.50;;;13.66;100.00
69848;BME280;57143;55.940;37.496;2022-09-09T05:42:04;100369.25;;;14.20;100.00
69848;BME280;57143;55.940;37.496;2022-09-09T05:44:31;100380.13;;;14.63;100.00
69848;BME280;57143;55.940;37.496;2022-09-09T05:46:58;100367.47;;;14.86;100.00
69848;BME280;57143;55.940;37.496;2022-09-09T05:49:25;100363.13;;;14.43;100.00
69848;BME280;57143;55.940;37.496;2022-09-09T05:51:54;100370.41;;;14.85;100.00
69848;BME280;57143;55.940;37.496;2022-09-09T05:54:21;100367.22;;;15.36;100.00
69848;BME280;57143;55.940;37.496;2022-09-09T05:56:48;100370.72;;;15.43;100.00
69848;BME280;57143;55.940;37.496;2022-09-09T05:59:19;100377.09;;;15.66;100.00
69848;BME280;57143;55.940;37.496;2022-09-09T06:01:46;100374.19;;;15.02;100.00
69848;BME280;57143;55.940;37.496;2022-09-09T06:04:13;100373.19;;;14.96;100.00
69848;BME280;57143;55.940;37.496;2022-09-09T06:06:40;100398.50;;;14.31;100.00
69848;BME280;57143;55.940;37.496;2022-09-09T06:09:09;100394.19;;;12.86;100.00
69848;BME280;57143;55.940;37.496;2022-09-09T06:11:38;100387.81;;;13.18;100.00
69848;BME280;57143;55.940;37.496;2022-09-09T06:14:05;100405.22;;;12.47;100.00
69848;BME280;57143;55.940;37.496;2022-09-09T06:16:33;100400.69;;;13.67;100.00
69848;BME280;57143;55.940;37.496;2022-09-09T06:19:00;100392.91;;;14.26;100.00
69848;BME280;57143;55.940;37.496;2022-09-09T06:21:29;100399.84;;;14.65;100.00
69848;BME280;57143;55.940;37.496;2022-09-09T06:23:58;100402.03;;;14.92;100.00
69848;BME280;57143;55.940;37.496;2022-09-09T06:26:29;100406.25;;;15.06;100.00
69848;BME280;57143;55.940;37.496;2022-09-09T06:28:57;100408.22;;;13.71;100.00
69848;BME280;57143;55.940;37.496;2022-09-09T06:31:25;100408.88;;;13.67;100.00
69848;BME280;57143;55.940;37.496;2022-09-09T06:33:56;100400.94;;;14.15;100.00
69848;BME280;57143;55.940;37.496;2022-09-09T06:36:25;100411.97;;;13.02;100.00
69848;BME280;57143;55.940;37.496;2022-09-09T06:38:53;100421.66;;;13.29;100.00
69848;BME280;57143;55.940;37.496;2022-09-09T06:41:21;100389.03;;;12.71;100.00
69848;BME280;57143;55.940;37.496;2022-09-09T06:43:50;100416.66;;;12.62;100.00
69848;BME280;57143;55.940;37.496;2022-09-09T06:46:18;100424.06;;;11.77;100.00
69848;BME280;57143;55.940;37.496;2022-09-09T06:48:47;100420.06;;;12.44;100.00
69848;BME280;57143;55.940;37.496;2022-09-09T06:51:15;100421.75;;;13.16;100.00
69848;BME280;57143;55.940;37.496;2022-09-09T06:53:44;100430.09;;;13.21;100.00
69848;BME280;57143;55.940;37.496;2022-09-09T06:56:19;100401.16;;;12.69;100.00
69848;BME280;57143;55.940;37.496;2022-09-09T06:58:51;100431.41;;;14.05;100.00
69848;BME280;57143;55.940;37.496;2022-09-09T07:01:19;100434.03;;;12.61;100.00
69848;BME280;57143;55.940;37.496;2022-09-09T07:03:48;100427.00;;;11.75;100.00
69848;BME280;57143;55.940;37.496;2022-09-09T07:06:17;100429.91;;;12.19;100.00
69848;BME280;57143;55.940;37.496;2022-09-09T07:08:49;100425.31;;;11.68;100.00
69848;BME280;57143;55.940;37.496;2022-09-09T07:11:18;100439.63;;;12.79;100.00
69848;BME280;57143;55.940;37.496;2022-09-09T07:13:45;100441.06;;;12.88;100.00
69848;BME280;57143;55.940;37.496;2022-09-09T07:16:16;100433.09;;;12.93;100.00
69848;BME280;57143;55.940;37.496;2022-09-09T07:18:43;100429.22;;;12.69;100.00
69848;BME280;57143;55.940;37.496;2022-09-09T07:21:12;100429.53;;;12.93;100.00
69848;BME280;57143;55.940;37.496;2022-09-09T07:23:40;100427.50;;;14.01;100.00
69848;BME280;57143;55.940;37.496;2022-09-09T07:26:11;100425.81;;;14.00;100.00
69848;BME280;57143;55.940;37.496;2022-09-09T07:28:39;100431.78;;;14.40;100.00
69848;BME280;57143;55.940;37.496;2022-09-09T07:31:08;100441.81;;;13.59;100.00
69848;BME280;57143;55.940;37.496;2022-09-09T07:33:43;100435.59;;;13.83;100.00
69848;BME280;57143;55.940;37.496;2022-09-09T07:36:13;100418.09;;;14.22;100.00
69848;BME280;57143;55.940;37.496;2022-09-09T07:38:40;100450.34;;;14.92;100.00
69848;BME280;57143;55.940;37.496;2022-09-09T07:41:10;100392.16;;;14.91;100.00
69848;BME280;57143;55.940;37.496;2022-09-09T07:43:38;100442.34;;;15.08;100.00
69848;BME280;57143;55.940;37.496;2022-09-09T07:46:06;100436.56;;;15.35;100.00
69848;BME280;57143;55.940;37.496;2022-09-09T07:48:34;100441.97;;;14.69;100.00
69848;BME280;57143;55.940;37.496;2022-09-09T07:51:07;100437.13;;;14.53;100.00
69848;BME280;57143;55.940;37.496;2022-09-09T07:53:36;100450.78;;;13.97;100.00
69848;BME280;57143;55.940;37.496;2022-09-09T07:56:05;100426.25;;;13.35;100.00
69848;BME280;57143;55.940;37.496;2022-09-09T07:58:33;100467.41;;;13.01;100.00
69848;BME280;57143;55.940;37.496;2022-09-09T08:01:00;100458.47;;;12.80;100.00
69848;BME280;57143;55.940;37.496;2022-09-09T08:03:27;100472.84;;;13.14;100.00
69848;BME280;57143;55.940;37.496;2022-09-09T08:06:00;100460.50;;;13.86;100.00
69848;BME280;57143;55.940;37.496;2022-09-09T08:08:29;100461.88;;;14.51;100.00
69848;BME280;57143;55.940;37.496;2022-09-09T08:11:02;100428.41;;;14.98;100.00
69848;BME280;57143;55.940;37.496;2022-09-09T08:13:30;100453.09;;;14.25;100.00
69848;BME280;57143;55.940;37.496;2022-09-09T08:16:04;100457.00;;;13.79;100.00
69848;BME280;57143;55.940;37.496;2022-09-09T08:18:32;100454.78;;;13.63;100.00
69848;BME280;57143;55.940;37.496;2022-09-09T08:21:05;100436.38;;;13.21;100.00
69848;BME280;57143;55.940;37.496;2022-09-09T08:23:34;100455.56;;;13.77;100.00
69848;BME280;57143;55.940;37.496;2022-09-09T08:26:05;100461.78;;;13.46;100.00
69848;BME280;57143;55.940;37.496;2022-09-09T08:28:34;100466.47;;;13.33;100.00
69848;BME280;57143;55.940;37.496;2022-09-09T08:31:10;100450.91;;;12.96;100.00
69848;BME280;57143;55.940;37.496;2022-09-09T08:33:37;100468.97;;;12.64;100.00
69848;BME280;57143;55.940;37.496;2022-09-09T08:36:06;100455.03;;;12.15;100.00
69848;BME280;57143;55.940;37.496;2022-09-09T08:38:36;100453.97;;;12.16;100.00
69848;BME280;57143;55.940;37.496;2022-09-09T08:41:29;100476.94;;;12.07;100.00
69848;BME280;57143;55.940;37.496;2022-09-09T08:44:03;100472.75;;;11.98;100.00
69848;BME280;57143;55.940;37.496;2022-09-09T08:46:41;100495.78;;;12.34;100.00
69848;BME280;57143;55.940;37.496;2022-09-09T08:49:19;100489.19;;;13.07;100.00
69848;BME280;57143;55.940;37.496;2022-09-09T08:51:53;100476.66;;;13.50;100.00
69848;BME280;57143;55.940;37.496;2022-09-09T08:54:27;100484.69;;;13.76;100.00
69848;BME280;57143;55.940;37.496;2022-09-09T08:56:59;100461.03;;;12.62;100.00
69848;BME280;57143;55.940;37.496;2022-09-09T08:59:26;100496.63;;;12.35;100.00
69848;BME280;57143;55.940;37.496;2022-09-09T09:02:01;100499.09;;;12.62;100.00
69848;BME280;57143;55.940;37.496;2022-09-09T09:04:51;100492.53;;;11.12;100.00
69848;BME280;57143;55.940;37.496;2022-09-09T09:07:35;100497.84;;;11.33;100.00
69848;BME280;57143;55.940;37.496;2022-09-09T09:10:17;100456.91;;;11.28;100.00
69848;BME280;57143;55.940;37.496;2022-09-09T09:12:51;100495.50;;;11.77;100.00
69848;BME280;57143;55.940;37.496;2022-09-09T09:15:23;100502.88;;;12.16;100.00
69848;BME280;57143;55.940;37.496;2022-09-09T09:17:50;100499.31;;;12.15;100.00
69848;BME280;57143;55.940;37.496;2022-09-09T09:20:21;100481.44;;;12.91;100.00
69848;BME280;57143;55.940;37.496;2022-09-09T09:22:51;100472.41;;;13.17;100.00
69848;BME280;57143;55.940;37.496;2022-09-09T09:25:22;100474.75;;;13.07;100.00
69848;BME280;57143;55.940;37.496;2022-09-09T09:27:56;100476.22;;;12.90;100.00
69848;BME280;57143;55.940;37.496;2022-09-09T09:30:29;100476.72;;;12.60;100.00
69848;BME280;57143;55.940;37.496;2022-09-09T09:33:00;100496.19;;;11.92;100.00
69848;BME280;57143;55.940;37.496;2022-09-09T09:35:29;100501.81;;;11.97;100.00
69848;BME280;57143;55.940;37.496;2022-09-09T09:37:56;100490.31;;;11.95;100.00
69848;BME280;57143;55.940;37.496;2022-09-09T09:40:25;100482.66;;;11.45;100.00
69848;BME280;57143;55.940;37.496;2022-09-09T09:42:54;100494.31;;;12.19;100.00
69848;BME280;57143;55.940;37.496;2022-09-09T09:45:27;100470.47;;;12.27;100.00
69848;BME280;57143;55.940;37.496;2022-09-09T09:48:03;100448.50;;;12.29;100.00
69848;BME280;57143;55.940;37.496;2022-09-09T09:50:31;100486.34;;;12.43;100.00
69848;BME280;57143;55.940;37.496;2022-09-09T09:53:01;100493.47;;;12.44;100.00
69848;BME280;57143;55.940;37.496;2022-09-09T09:55:33;100490.50;;;12.65;100.00
69848;BME280;57143;55.940;37.496;2022-09-09T09:58:03;100486.69;;;12.93;100.00
69848;BME280;57143;55.940;37.496;2022-09-09T10:00:30;100484.47;;;13.40;100.00
69848;BME280;57143;55.940;37.496;2022-09-09T10:02:59;100482.31;;;13.49;100.00
69848;BME280;57143;55.940;37.496;2022-09-09T10:05:28;100486.69;;;13.87;100.00
69848;BME280;57143;55.940;37.496;2022-09-09T10:08:04;100492.41;;;13.79;100.00
69848;BME280;57143;55.940;37.496;2022-09-09T10:10:42;100485.38;;;13.97;100.00
69848;BME280;57143;55.940;37.496;2022-09-09T10:13:18;100487.75;;;13.86;100.00
69848;BME280;57143;55.940;37.496;2022-09-09T10:15:55;100484.09;;;13.68;100.00
69848;BME280;57143;55.940;37.496;2022-09-09T10:18:45;100489.94;;;13.71;100.00
69848;BME280;57143;55.940;37.496;2022-09-09T10:21:23;100486.09;;;14.10;100.00
69848;BME280;57143;55.940;37.496;2022-09-09T10:24:05;100484.69;;;13.76;100.00
69848;BME280;57143;55.940;37.496;2022-09-09T10:26:46;100482.25;;;13.62;100.00
69848;BME280;57143;55.940;37.496;2022-09-09T10:29:43;100463.03;;;13.50;100.00
69848;BME280;57143;55.940;37.496;2022-09-09T10:32:31;100465.00;;;13.37;100.00
69848;BME280;57143;55.940;37.496;2022-09-09T10:35:08;100455.56;;;12.69;100.00
69848;BME280;57143;55.940;37.496;2022-09-09T10:37:53;100470.34;;;12.99;100.00
69848;BME280;57143;55.940;37.496;2022-09-09T10:40:30;100499.81;;;13.28;100.00
69848;BME280;57143;55.940;37.496;2022-09-09T10:43:09;100503.75;;;13.32;100.00
69848;BME280;57143;55.940;37.496;2022-09-09T10:45:48;100505.06;;;13.23;100.00
69848;BME280;57143;55.940;37.496;2022-09-09T10:48:28;100493.44;;;13.41;100.00
69848;BME280;57143;55.940;37.496;2022-09-09T10:51:06;100481.00;;;13.14;100.00
69848;BME280;57143;55.940;37.496;2022-09-09T10:53:49;100500.44;;;13.24;100.00
69848;BME280;57143;55.940;37.496;2022-09-09T10:56:20;100500.03;;;13.20;100.00
69848;BME280;57143;55.940;37.496;2022-09-09T10:58:53;100500.00;;;13.71;100.00
69848;BME280;57143;55.940;37.496;2022-09-09T11:01:24;100492.06;;;13.69;100.00
69848;BME280;57143;55.940;37.496;2022-09-09T11:03:55;100496.78;;;13.80;100.00
69848;BME280;57143;55.940;37.496;2022-09-09T11:06:29;100495.25;;;13.91;100.00
69848;BME280;57143;55.940;37.496;2022-09-09T11:08:59;100493.25;;;13.80;100.00
69848;BME280;57143;55.940;37.496;2022-09-09T11:11:33;100485.44;;;13.90;100.00
69848;BME280;57143;55.940;37.496;2022-09-09T11:14:08;100481.44;;;13.61;100.00
69848;BME280;57143;55.940;37.496;2022-09-09T11:16:40;100477.53;;;13.38;100.00
69848;BME280;57143;55.940;37.496;2022-09-09T11:19:14;100479.47;;;13.31;100.00
69848;BME280;57143;55.940;37.496;2022-09-09T11:21:46;100481.63;;;13.16;100.00
69848;BME280;57143;55.940;37.496;2022-09-09T11:24:18;100484.84;;;12.80;100.00
69848;BME280;57143;55.940;37.496;2022-09-09T11:26:51;100490.69;;;12.84;100.00
69848;BME280;57143;55.940;37.496;2022-09-09T11:32:42;100494.69;;;12.61;100.00
69848;BME280;57143;55.940;37.496;2022-09-09T11:35:28;100492.84;;;12.36;100.00
69848;BME280;57143;55.940;37.496;2022-09-09T11:38:15;100497.84;;;12.32;100.00
69848;BME280;57143;55.940;37.496;2022-09-09T11:40:45;100490.97;;;12.36;100.00
69848;BME280;57143;55.940;37.496;2022-09-09T11:43:16;100494.69;;;12.61;100.00
69848;BME280;57143;55.940;37.496;2022-09-09T11:45:52;100489.41;;;12.93;100.00
69848;BME280;57143;55.940;37.496;2022-09-09T11:48:26;100492.91;;;13.19;100.00
69848;BME280;57143;55.940;37.496;2022-09-09T11:50:59;100450.44;;;13.18;100.00
69848;BME280;57143;55.940;37.496;2022-09-09T11:53:27;100488.63;;;13.43;100.00
69848;BME280;57143;55.940;37.496;2022-09-09T11:56:11;100486.09;;;13.85;100.00
69848;BME280;57143;55.940;37.496;2022-09-09T11:58:43;100465.50;;;13.89;100.00
69848;BME280;57143;55.940;37.496;2022-09-09T12:01:36;100478.34;;;13.82;100.00
69848;BME280;57143;55.940;37.496;2022-09-09T12:04:31;100476.78;;;13.62;100.00
69848;BME280;57143;55.940;37.496;2022-09-09T12:07:01;100435.13;;;13.55;99.81
69848;BME280;57143;55.940;37.496;2022-09-09T12:09:44;100468.88;;;13.54;97.38
69848;BME280;57143;55.940;37.496;2022-09-09T12:12:29;100473.09;;;13.50;98.73
69848;BME280;57143;55.940;37.496;2022-09-09T12:15:00;100470.47;;;13.30;100.00
69848;BME280;57143;55.940;37.496;2022-09-09T12:17:31;100473.47;;;13.16;100.00
69848;BME280;57143;55.940;37.496;2022-09-09T12:20:11;100477.59;;;13.31;100.00
69848;BME280;57143;55.940;37.496;2022-09-09T12:22:47;100470.66;;;13.29;100.00
69848;BME280;57143;55.940;37.496;2022-09-09T12:25:26;100469.75;;;12.91;100.00
69848;BME280;57143;55.940;37.496;2022-09-09T12:28:06;100440.94;;;12.70;100.00
69848;BME280;57143;55.940;37.496;2022-09-09T12:30:46;100406.91;;;12.35;100.00
69848;BME280;57143;55.940;37.496;2022-09-09T12:33:18;100480.09;;;12.36;100.00
69848;BME280;57143;55.940;37.496;2022-09-09T12:35:53;100483.84;;;12.29;100.00
69848;BME280;57143;55.940;37.496;2022-09-09T12:38:27;100493.47;;;12.18;100.00
69848;BME280;57143;55.940;37.496;2022-09-09T12:40:57;100477.38;;;12.30;100.00
69848;BME280;57143;55.940;37.496;2022-09-09T12:43:29;100483.88;;;12.09;100.00
69848;BME280;57143;55.940;37.496;2022-09-09T12:45:59;100485.09;;;12.07;100.00
69848;BME280;57143;55.940;37.496;2022-09-09T12:48:35;100484.50;;;12.18;100.00
69848;BME280;57143;55.940;37.496;2022-09-09T12:51:18;100476.09;;;12.32;100.00
69848;BME280;57143;55.940;37.496;2022-09-09T12:53:46;100483.41;;;12.51;100.00
69848;BME280;57143;55.940;37.496;2022-09-09T12:56:24;100445.16;;;12.59;100.00
69848;BME280;57143;55.940;37.496;2022-09-09T12:58:54;100465.75;;;12.93;100.00
69848;BME280;57143;55.940;37.496;2022-09-09T13:01:24;100436.31;;;12.70;100.00